sensor_id;sensor_type;location;lat;lon;timestamp;P1;durP1;ratioP1;P2;durP2;ratioP2
3280;SDS011;1652;51.318;6.202;2023-02-03T00:01:34;16.73;;;11.20;;
3280;SDS011;1652;51.318;6.202;2023-02-03T00:04:01;16.87;;;11.13;;
3280;SDS011;1652;51.318;6.202;2023-02-03T00:06:29;16.70;;;10.33;;
3280;SDS011;1652;51.318;6.202;2023-02-03T00:08:57;10.83;;;9.57;;
3280;SDS011;1652;51.318;6.202;2023-02-03T00:11:26;18.37;;;11.13;;
3280;SDS011;1652;51.318;6.202;2023-02-03T00:13:55;13.90;;;10.07;;
3280;SDS011;1652;51.318;6.202;2023-02-03T00:16:22;16.53;;;10.13;;
3280;SDS011;1652;51.318;6.202;2023-02-03T00:18:49;26.57;;;11.90;;
3280;SDS011;1652;51.318;6.202;2023-02-03T00:21:15;17.40;;;10.07;;
3280;SDS011;1652;51.318;6.202;2023-02-03T00:23:43;11.70;;;10.07;;
3280;SDS011;1652;51.318;6.202;2023-02-03T00:26:10;17.80;;;9.70;;
3280;SDS011;1652;51.318;6.202;2023-02-03T00:28:39;21.00;;;10.23;;
3280;SDS011;1652;51.318;6.202;2023-02-03T00:31:13;20.90;;;10.90;;
3280;SDS011;1652;51.318;6.202;2023-02-03T00:33:43;13.87;;;11.67;;
3280;SDS011;1652;51.318;6.202;2023-02-03T00:36:10;10.33;;;9.03;;
3280;SDS011;1652;51.318;6.202;2023-02-03T00:38:38;11.20;;;9.13;;
3280;SDS011;1652;51.318;6.202;2023-02-03T00:41:05;14.33;;;10.07;;
3280;SDS011;1652;51.318;6.202;2023-02-03T00:43:32;22.20;;;9.30;;
3280;SDS011;1652;51.318;6.202;2023-02-03T00:45:59;18.13;;;9.93;;
3280;SDS011;1652;51.318;6.202;2023-02-03T00:48:26;13.87;;;8.73;;
3280;SDS011;1652;51.318;6.202;2023-02-03T00:50:53;17.50;;;10.53;;
3280;SDS011;1652;51.318;6.202;2023-02-03T00:53:20;29.30;;;10.47;;
3280;SDS011;1652;51.318;6.202;2023-02-03T00:55:46;15.80;;;8.90;;
3280;SDS011;1652;51.318;6.202;2023-02-03T00:58:13;16.77;;;8.50;;
3280;SDS011;1652;51.318;6.202;2023-02-03T01:00:40;15.13;;;8.17;;
3280;SDS011;1652;51.318;6.202;2023-02-03T01:03:07;12.50;;;7.20;;
3280;SDS011;1652;51.318;6.202;2023-02-03T01:05:33;16.57;;;8.27;;
3280;SDS011;1652;51.318;6.202;2023-02-03T01:08:00;16.13;;;8.67;;
3280;SDS011;1652;51.318;6.202;2023-02-03T01:10:28;12.37;;;8.20;;
3280;SDS011;1652;51.318;6.202;2023-02-03T01:12:55;9.07;;;7.97;;
3280;SDS011;1652;51.318;6.202;2023-02-03T01:15:22;15.67;;;8.10;;
3280;SDS011;1652;51.318;6.202;2023-02-03T01:17:49;13.40;;;8.40;;
3280;SDS011;1652;51.318;6.202;2023-02-03T01:20:15;20.40;;;7.90;;
3280;SDS011;1652;51.318;6.202;2023-02-03T01:22:42;15.93;;;7.60;;
3280;SDS011;1652;51.318;6.202;2023-02-03T01:25:09;18.70;;;7.67;;
3280;SDS011;1652;51.318;6.202;2023-02-03T01:27:36;7.17;;;6.47;;
3280;SDS011;1652;51.318;6.202;2023-02-03T01:30:03;10.97;;;6.97;;
3280;SDS011;1652;51.318;6.202;2023-02-03T01:32:30;7.30;;;6.40;;
3280;SDS011;1652;51.318;6.202;2023-02-03T01:34:57;7.03;;;5.80;;
3280;SDS011;1652;51.318;6.202;2023-02-03T01:37:24;11.03;;;7.00;;
3280;SDS011;1652;51.318;6.202;2023-02-03T01:39:50;15.30;;;6.30;;
3280;SDS011;1652;51.318;6.202;2023-02-03T01:42:17;10.03;;;5.87;;
3280;SDS011;1652;51.318;6.202;2023-02-03T01:44:48;7.93;;;5.70;;
3280;SDS011;1652;51.318;6.202;2023-02-03T01:49:55;10.60;;;5.03;;
3280;SDS011;1652;51.318;6.202;2023-02-03T01:52:28;10.10;;;4.80;;
3280;SDS011;1652;51.318;6.202;2023-02-03T01:54:55;6.83;;;4.57;;
3280;SDS011;1652;51.318;6.202;2023-02-03T01:57:26;5.20;;;4.90;;
3280;SDS011;1652;51.318;6.202;2023-02-03T01:59:58;7.30;;;4.50;;
3280;SDS011;1652;51.318;6.202;2023-02-03T02:02:26;4.37;;;4.03;;
3280;SDS011;1652;51.318;6.202;2023-02-03T02:05:02;5.50;;;4.40;;
3280;SDS011;1652;51.318;6.202;2023-02-03T02:07:32;7.50;;;4.30;;
3280;SDS011;1652;51.318;6.202;2023-02-03T02:10:01;13.43;;;5.60;;
3280;SDS011;1652;51.318;6.202;2023-02-03T02:12:28;4.33;;;3.80;;
3280;SDS011;1652;51.318;6.202;2023-02-03T02:14:55;12.10;;;4.80;;
3280;SDS011;1652;51.318;6.202;2023-02-03T02:18:27;9.33;;;4.10;;
3280;SDS011;1652;51.318;6.202;2023-02-03T02:20:32;5.83;;;4.10;;
3280;SDS011;1652;51.318;6.202;2023-02-03T02:23:35;8.03;;;3.30;;
3280;SDS011;1652;51.318;6.202;2023-02-03T02:32:03;5.93;;;4.27;;
3280;SDS011;1652;51.318;6.202;2023-02-03T02:34:44;5.07;;;4.50;;
3280;SDS011;1652;51.318;6.202;2023-02-03T02:43:11;8.80;;;4.57;;
3280;SDS011;1652;51.318;6.202;2023-02-03T02:45:59;5.30;;;4.17;;
3280;SDS011;1652;51.318;6.202;2023-02-03T02:48:35;4.80;;;4.40;;
3280;SDS011;1652;51.318;6.202;2023-02-03T02:51:08;4.80;;;3.80;;
3280;SDS011;1652;51.318;6.202;2023-02-03T02:53:39;17.07;;;5.00;;
3280;SDS011;1652;51.318;6.202;2023-02-03T02:56:12;7.87;;;5.40;;
3280;SDS011;1652;51.318;6.202;2023-02-03T02:58:42;16.30;;;5.60;;
3280;SDS011;1652;51.318;6.202;2023-02-03T03:01:12;4.80;;;4.27;;
3280;SDS011;1652;51.318;6.202;2023-02-03T03:03:41;12.00;;;5.30;;
3280;SDS011;1652;51.318;6.202;2023-02-03T03:08:59;6.10;;;5.57;;
3280;SDS011;1652;51.318;6.202;2023-02-03T03:11:36;7.80;;;4.90;;
3280;SDS011;1652;51.318;6.202;2023-02-03T03:14:08;5.97;;;4.50;;
3280;SDS011;1652;51.318;6.202;2023-02-03T03:16:38;5.70;;;5.10;;
3280;SDS011;1652;51.318;6.202;2023-02-03T03:19:11;9.43;;;4.67;;
3280;SDS011;1652;51.318;6.202;2023-02-03T03:21:42;7.20;;;4.60;;
3280;SDS011;1652;51.318;6.202;2023-02-03T03:24:16;10.50;;;4.77;;
3280;SDS011;1652;51.318;6.202;2023-02-03T03:26:49;7.47;;;4.40;;
3280;SDS011;1652;51.318;6.202;2023-02-03T03:29:29;6.60;;;5.03;;
3280;SDS011;1652;51.318;6.202;2023-02-03T03:32:00;6.40;;;4.00;;
3280;SDS011;1652;51.318;6.202;2023-02-03T03:34:28;6.27;;;4.23;;
3280;SDS011;1652;51.318;6.202;2023-02-03T03:37:04;7.87;;;4.63;;
3280;SDS011;1652;51.318;6.202;2023-02-03T03:39:53;11.50;;;3.80;;
3280;SDS011;1652;51.318;6.202;2023-02-03T03:42:28;4.57;;;3.97;;
3280;SDS011;1652;51.318;6.202;2023-02-03T03:45:04;5.90;;;4.00;;
3280;SDS011;1652;51.318;6.202;2023-02-03T03:47:37;6.27;;;4.17;;
3280;SDS011;1652;51.318;6.202;2023-02-03T03:50:06;4.03;;;3.73;;
3280;SDS011;1652;51.318;6.202;2023-02-03T03:52:37;5.73;;;3.87;;
3280;SDS011;1652;51.318;6.202;2023-02-03T03:55:06;10.30;;;4.37;;
3280;SDS011;1652;51.318;6.202;2023-02-03T03:57:36;4.13;;;3.00;;
3280;SDS011;1652;51.318;6.202;2023-02-03T04:00:09;11.70;;;3.73;;
3280;SDS011;1652;51.318;6.202;2023-02-03T04:02:40;5.33;;;3.63;;
3280;SDS011;1652;51.318;6.202;2023-02-03T04:05:11;5.97;;;3.67;;
3280;SDS011;1652;51.318;6.202;2023-02-03T04:07:43;3.63;;;3.33;;
3280;SDS011;1652;51.318;6.202;2023-02-03T04:12:57;7.73;;;3.23;;
3280;SDS011;1652;51.318;6.202;2023-02-03T04:15:24;6.27;;;2.93;;
3280;SDS011;1652;51.318;6.202;2023-02-03T04:17:52;7.37;;;3.70;;
3280;SDS011;1652;51.318;6.202;2023-02-03T04:20:20;7.67;;;2.87;;
3280;SDS011;1652;51.318;6.202;2023-02-03T04:22:46;4.10;;;2.50;;
3280;SDS011;1652;51.318;6.202;2023-02-03T04:25:13;5.73;;;2.60;;
3280;SDS011;1652;51.318;6.202;2023-02-03T04:27:40;7.33;;;3.50;;
3280;SDS011;1652;51.318;6.202;2023-02-03T04:30:08;5.80;;;2.63;;
3280;SDS011;1652;51.318;6.202;2023-02-03T04:32:36;10.97;;;2.97;;
3280;SDS011;1652;51.318;6.202;2023-02-03T04:35:03;7.27;;;2.87;;
3280;SDS011;1652;51.318;6.202;2023-02-03T04:37:31;4.80;;;2.50;;
3280;SDS011;1652;51.318;6.202;2023-02-03T04:39:58;6.37;;;2.60;;
3280;SDS011;1652;51.318;6.202;2023-02-03T04:42:25;3.63;;;2.30;;
3280;SDS011;1652;51.318;6.202;2023-02-03T04:44:52;5.97;;;2.50;;
3280;SDS011;1652;51.318;6.202;2023-02-03T04:47:19;11.67;;;2.63;;
3280;SDS011;1652;51.318;6.202;2023-02-03T04:49:46;7.70;;;2.83;;
3280;SDS011;1652;51.318;6.202;2023-02-03T04:52:12;11.10;;;2.90;;
3280;SDS011;1652;51.318;6.202;2023-02-03T04:54:39;6.17;;;2.57;;
3280;SDS011;1652;51.318;6.202;2023-02-03T04:57:06;5.97;;;3.60;;
3280;SDS011;1652;51.318;6.202;2023-02-03T04:59:33;4.53;;;3.10;;
3280;SDS011;1652;51.318;6.202;2023-02-03T05:02:02;4.83;;;2.30;;
3280;SDS011;1652;51.318;6.202;2023-02-03T05:04:30;7.43;;;3.00;;
3280;SDS011;1652;51.318;6.202;2023-02-03T05:06:57;11.47;;;2.53;;
3280;SDS011;1652;51.318;6.202;2023-02-03T05:09:24;5.67;;;2.20;;
3280;SDS011;1652;51.318;6.202;2023-02-03T05:11:51;7.20;;;2.33;;
3280;SDS011;1652;51.318;6.202;2023-02-03T05:14:19;7.13;;;2.90;;
3280;SDS011;1652;51.318;6.202;2023-02-03T05:16:46;5.07;;;2.20;;
3280;SDS011;1652;51.318;6.202;2023-02-03T05:19:13;10.00;;;2.40;;
3280;SDS011;1652;51.318;6.202;2023-02-03T05:21:39;4.50;;;2.00;;
3280;SDS011;1652;51.318;6.202;2023-02-03T05:24:06;6.60;;;2.67;;
3280;SDS011;1652;51.318;6.202;2023-02-03T05:26:34;6.10;;;2.10;;
3280;SDS011;1652;51.318;6.202;2023-02-03T05:29:01;5.73;;;2.73;;
3280;SDS011;1652;51.318;6.202;2023-02-03T05:31:28;4.90;;;2.30;;
3280;SDS011;1652;51.318;6.202;2023-02-03T05:33:55;5.57;;;2.13;;
3280;SDS011;1652;51.318;6.202;2023-02-03T05:36:22;2.53;;;1.97;;
3280;SDS011;1652;51.318;6.202;2023-02-03T05:38:49;7.43;;;2.27;;
3280;SDS011;1652;51.318;6.202;2023-02-03T05:41:17;4.80;;;2.37;;
3280;SDS011;1652;51.318;6.202;2023-02-03T05:44:02;3.93;;;1.60;;
3280;SDS011;1652;51.318;6.202;2023-02-03T05:46:29;3.70;;;1.77;;
3280;SDS011;1652;51.318;6.202;2023-02-03T05:48:56;9.00;;;2.20;;
3280;SDS011;1652;51.318;6.202;2023-02-03T05:51:23;6.43;;;1.97;;
3280;SDS011;1652;51.318;6.202;2023-02-03T05:53:51;4.90;;;2.03;;
3280;SDS011;1652;51.318;6.202;2023-02-03T05:56:19;8.97;;;2.83;;
3280;SDS011;1652;51.318;6.202;2023-02-03T05:58:46;3.10;;;2.20;;
3280;SDS011;1652;51.318;6.202;2023-02-03T06:01:13;14.67;;;2.80;;
3280;SDS011;1652;51.318;6.202;2023-02-03T06:03:40;5.23;;;2.60;;
3280;SDS011;1652;51.318;6.202;2023-02-03T06:06:11;4.90;;;1.90;;
3280;SDS011;1652;51.318;6.202;2023-02-03T06:08:38;3.50;;;1.70;;
3280;SDS011;1652;51.318;6.202;2023-02-03T06:11:08;2.50;;;2.00;;
3280;SDS011;1652;51.318;6.202;2023-02-03T06:13:36;2.90;;;1.30;;
3280;SDS011;1652;51.318;6.202;2023-02-03T06:16:04;2.63;;;1.77;;
3280;SDS011;1652;51.318;6.202;2023-02-03T06:18:31;8.23;;;1.80;;
3280;SDS011;1652;51.318;6.202;2023-02-03T06:20:57;2.70;;;2.50;;
3280;SDS011;1652;51.318;6.202;2023-02-03T06:23:24;2.23;;;1.80;;
3280;SDS011;1652;51.318;6.202;2023-02-03T06:25:51;4.73;;;1.73;;
3280;SDS011;1652;51.318;6.202;2023-02-03T06:28:18;3.10;;;1.63;;
3280;SDS011;1652;51.318;6.202;2023-02-03T06:30:48;2.73;;;1.67;;
3280;SDS011;1652;51.318;6.202;2023-02-03T06:33:16;5.73;;;2.80;;
3280;SDS011;1652;51.318;6.202;2023-02-03T06:35:43;3.37;;;2.20;;
3280;SDS011;1652;51.318;6.202;2023-02-03T06:38:10;12.03;;;2.40;;
3280;SDS011;1652;51.318;6.202;2023-02-03T06:40:37;6.43;;;1.70;;
3280;SDS011;1652;51.318;6.202;2023-02-03T06:43:04;4.30;;;1.87;;
3280;SDS011;1652;51.318;6.202;2023-02-03T06:45:31;2.73;;;1.67;;
3280;SDS011;1652;51.318;6.202;2023-02-03T06:47:58;6.73;;;2.53;;
3280;SDS011;1652;51.318;6.202;2023-02-03T06:50:24;12.97;;;1.80;;
3280;SDS011;1652;51.318;6.202;2023-02-03T06:52:51;4.90;;;2.17;;
3280;SDS011;1652;51.318;6.202;2023-02-03T06:55:18;4.13;;;1.90;;
3280;SDS011;1652;51.318;6.202;2023-02-03T06:57:46;7.27;;;1.90;;
3280;SDS011;1652;51.318;6.202;2023-02-03T07:00:14;8.57;;;2.10;;
3280;SDS011;1652;51.318;6.202;2023-02-03T07:02:44;5.97;;;1.63;;
3280;SDS011;1652;51.318;6.202;2023-02-03T07:05:11;4.00;;;2.07;;
3280;SDS011;1652;51.318;6.202;2023-02-03T07:07:38;14.90;;;2.73;;
3280;SDS011;1652;51.318;6.202;2023-02-03T07:10:05;1.90;;;1.30;;
3280;SDS011;1652;51.318;6.202;2023-02-03T07:12:32;3.20;;;1.57;;
3280;SDS011;1652;51.318;6.202;2023-02-03T07:15:02;6.43;;;1.50;;
3280;SDS011;1652;51.318;6.202;2023-02-03T07:17:30;5.90;;;1.70;;
3280;SDS011;1652;51.318;6.202;2023-02-03T07:19:57;4.73;;;1.83;;
3280;SDS011;1652;51.318;6.202;2023-02-03T07:22:24;5.40;;;2.03;;
3280;SDS011;1652;51.318;6.202;2023-02-03T07:24:50;2.57;;;1.83;;
3280;SDS011;1652;51.318;6.202;2023-02-03T07:27:17;1.90;;;1.70;;
3280;SDS011;1652;51.318;6.202;2023-02-03T07:29:45;2.90;;;1.90;;
3280;SDS011;1652;51.318;6.202;2023-02-03T07:32:12;5.00;;;2.20;;
3280;SDS011;1652;51.318;6.202;2023-02-03T07:34:39;1.50;;;1.40;;
3280;SDS011;1652;51.318;6.202;2023-02-03T07:37:06;3.77;;;1.40;;
3280;SDS011;1652;51.318;6.202;2023-02-03T07:39:33;4.57;;;1.47;;
3280;SDS011;1652;51.318;6.202;2023-02-03T07:42:00;6.50;;;2.27;;
3280;SDS011;1652;51.318;6.202;2023-02-03T07:44:27;9.43;;;2.20;;
3280;SDS011;1652;51.318;6.202;2023-02-03T07:46:53;8.10;;;1.53;;
3280;SDS011;1652;51.318;6.202;2023-02-03T07:49:20;2.23;;;1.50;;
3280;SDS011;1652;51.318;6.202;2023-02-03T07:51:47;5.43;;;2.23;;
3280;SDS011;1652;51.318;6.202;2023-02-03T07:54:14;2.70;;;1.70;;
3280;SDS011;1652;51.318;6.202;2023-02-03T07:56:41;4.73;;;2.03;;
3280;SDS011;1652;51.318;6.202;2023-02-03T07:59:08;7.57;;;2.37;;
3280;SDS011;1652;51.318;6.202;2023-02-03T08:01:35;2.70;;;1.80;;
3280;SDS011;1652;51.318;6.202;2023-02-03T08:04:02;1.80;;;1.70;;
3280;SDS011;1652;51.318;6.202;2023-02-03T08:06:30;6.93;;;3.53;;
3280;SDS011;1652;51.318;6.202;2023-02-03T08:08:57;6.23;;;2.50;;
3280;SDS011;1652;51.318;6.202;2023-02-03T08:11:24;6.63;;;2.03;;
3280;SDS011;1652;51.318;6.202;2023-02-03T08:13:51;5.10;;;2.10;;
3280;SDS011;1652;51.318;6.202;2023-02-03T08:16:18;3.37;;;1.93;;
3280;SDS011;1652;51.318;6.202;2023-02-03T08:18:45;7.57;;;2.40;;
3280;SDS011;1652;51.318;6.202;2023-02-03T08:21:12;2.40;;;1.90;;
3280;SDS011;1652;51.318;6.202;2023-02-03T08:23:39;3.50;;;2.00;;
3280;SDS011;1652;51.318;6.202;2023-02-03T08:26:05;3.43;;;2.37;;
3280;SDS011;1652;51.318;6.202;2023-02-03T08:28:32;4.20;;;2.50;;
3280;SDS011;1652;51.318;6.202;2023-02-03T08:30:59;3.07;;;2.87;;
3280;SDS011;1652;51.318;6.202;2023-02-03T08:33:26;4.43;;;2.90;;
3280;SDS011;1652;51.318;6.202;2023-02-03T08:35:54;6.00;;;2.53;;
3280;SDS011;1652;51.318;6.202;2023-02-03T08:38:21;8.73;;;2.70;;
3280;SDS011;1652;51.318;6.202;2023-02-03T08:40:48;7.30;;;2.77;;
3280;SDS011;1652;51.318;6.202;2023-02-03T08:43:15;2.90;;;2.70;;
3280;SDS011;1652;51.318;6.202;2023-02-03T08:45:42;4.47;;;2.40;;
3280;SDS011;1652;51.318;6.202;2023-02-03T08:48:09;8.33;;;3.07;;
3280;SDS011;1652;51.318;6.202;2023-02-03T08:50:36;3.80;;;3.07;;
3280;SDS011;1652;51.318;6.202;2023-02-03T08:53:06;5.70;;;3.40;;
3280;SDS011;1652;51.318;6.202;2023-02-03T08:55:39;5.80;;;3.70;;
3280;SDS011;1652;51.318;6.202;2023-02-03T08:58:06;5.00;;;3.27;;
3280;SDS011;1652;51.318;6.202;2023-02-03T09:00:33;3.63;;;3.43;;
3280;SDS011;1652;51.318;6.202;2023-02-03T09:03:00;4.77;;;3.30;;
3280;SDS011;1652;51.318;6.202;2023-02-03T09:05:28;4.93;;;3.87;;
3280;SDS011;1652;51.318;6.202;2023-02-03T09:07:56;11.77;;;4.07;;
3280;SDS011;1652;51.318;6.202;2023-02-03T09:10:23;4.53;;;4.07;;
3280;SDS011;1652;51.318;6.202;2023-02-03T09:12:51;6.93;;;3.70;;
3280;SDS011;1652;51.318;6.202;2023-02-03T09:15:18;5.23;;;3.80;;
3280;SDS011;1652;51.318;6.202;2023-02-03T09:17:45;9.70;;;3.80;;
3280;SDS011;1652;51.318;6.202;2023-02-03T09:20:16;4.57;;;4.03;;
3280;SDS011;1652;51.318;6.202;2023-02-03T09:22:43;6.87;;;4.50;;
3280;SDS011;1652;51.318;6.202;2023-02-03T09:25:11;5.10;;;3.83;;
3280;SDS011;1652;51.318;6.202;2023-02-03T09:27:39;5.23;;;3.53;;
3280;SDS011;1652;51.318;6.202;2023-02-03T09:30:06;6.60;;;4.07;;
3280;SDS011;1652;51.318;6.202;2023-02-03T09:32:34;4.80;;;3.50;;
3280;SDS011;1652;51.318;6.202;2023-02-03T09:35:00;3.93;;;3.70;;
3280;SDS011;1652;51.318;6.202;2023-02-03T09:37:30;8.67;;;4.00;;
3280;SDS011;1652;51.318;6.202;2023-02-03T09:39:57;5.27;;;4.53;;
3280;SDS011;1652;51.318;6.202;2023-02-03T09:42:49;3.70;;;3.33;;
3280;SDS011;1652;51.318;6.202;2023-02-03T09:45:25;8.00;;;4.93;;
3280;SDS011;1652;51.318;6.202;2023-02-03T09:47:54;4.97;;;4.40;;
3280;SDS011;1652;51.318;6.202;2023-02-03T09:50:27;9.73;;;4.30;;
3280;SDS011;1652;51.318;6.202;2023-02-03T09:52:57;6.67;;;4.80;;
3280;SDS011;1652;51.318;6.202;2023-02-03T09:55:33;5.00;;;4.40;;
3280;SDS011;1652;51.318;6.202;2023-02-03T09:58:05;7.27;;;4.40;;
3280;SDS011;1652;51.318;6.202;2023-02-03T10:00:43;5.03;;;4.63;;
3280;SDS011;1652;51.318;6.202;2023-02-03T10:08:42;5.00;;;4.60;;
3280;SDS011;1652;51.318;6.202;2023-02-03T10:14:12;6.47;;;4.10;;
3280;SDS011;1652;51.318;6.202;2023-02-03T10:19:45;6.60;;;4.83;;
3280;SDS011;1652;51.318;6.202;2023-02-03T10:22:23;6.23;;;4.40;;
3280;SDS011;1652;51.318;6.202;2023-02-03T10:24:58;5.17;;;4.70;;
3280;SDS011;1652;51.318;6.202;2023-02-03T10:27:28;6.57;;;5.10;;
3280;SDS011;1652;51.318;6.202;2023-02-03T10:30:00;6.13;;;4.27;;
3280;SDS011;1652;51.318;6.202;2023-02-03T10:32:40;4.77;;;3.87;;
3280;SDS011;1652;51.318;6.202;2023-02-03T10:35:10;4.77;;;3.43;;
3280;SDS011;1652;51.318;6.202;2023-02-03T10:37:45;8.10;;;4.43;;
3280;SDS011;1652;51.318;6.202;2023-02-03T10:40:15;9.63;;;4.23;;
3280;SDS011;1652;51.318;6.202;2023-02-03T10:42:43;8.60;;;3.90;;
3280;SDS011;1652;51.318;6.202;2023-02-03T10:45:33;2.80;;;2.60;;
3280;SDS011;1652;51.318;6.202;2023-02-03T10:48:03;5.57;;;4.20;;
3280;SDS011;1652;51.318;6.202;2023-02-03T10:50:32;10.70;;;3.40;;
3280;SDS011;1652;51.318;6.202;2023-02-03T10:55:51;4.30;;;3.20;;
3280;SDS011;1652;51.318;6.202;2023-02-03T10:58:36;7.00;;;3.17;;
3280;SDS011;1652;51.318;6.202;2023-02-03T11:01:11;10.00;;;3.07;;
3280;SDS011;1652;51.318;6.202;2023-02-03T11:03:41;5.37;;;3.77;;
3280;SDS011;1652;51.318;6.202;2023-02-03T11:06:14;5.47;;;3.47;;
3280;SDS011;1652;51.318;6.202;2023-02-03T11:08:43;16.20;;;8.50;;
3280;SDS011;1652;51.318;6.202;2023-02-03T11:11:12;8.03;;;3.10;;
3280;SDS011;1652;51.318;6.202;2023-02-03T11:16:29;8.57;;;5.20;;
3280;SDS011;1652;51.318;6.202;2023-02-03T11:29:30;4.67;;;2.73;;
3280;SDS011;1652;51.318;6.202;2023-02-03T11:32:45;4.80;;;2.30;;
3280;SDS011;1652;51.318;6.202;2023-02-03T11:35:11;9.40;;;2.47;;
3280;SDS011;1652;51.318;6.202;2023-02-03T11:37:53;10.40;;;2.70;;
3280;SDS011;1652;51.318;6.202;2023-02-03T11:40:33;5.97;;;3.00;;
3280;SDS011;1652;51.318;6.202;2023-02-03T11:43:04;4.73;;;2.70;;
3280;SDS011;1652;51.318;6.202;2023-02-03T11:45:42;7.73;;;3.13;;
3280;SDS011;1652;51.318;6.202;2023-02-03T11:48:17;17.00;;;3.40;;
3280;SDS011;1652;51.318;6.202;2023-02-03T11:51:10;4.57;;;2.60;;
3280;SDS011;1652;51.318;6.202;2023-02-03T12:10:42;8.20;;;3.00;;
3280;SDS011;1652;51.318;6.202;2023-02-03T12:21:44;5.93;;;3.07;;
3280;SDS011;1652;51.318;6.202;2023-02-03T12:24:32;7.40;;;2.30;;
3280;SDS011;1652;51.318;6.202;2023-02-03T12:27:26;5.73;;;2.33;;
3280;SDS011;1652;51.318;6.202;2023-02-03T12:30:21;4.87;;;2.50;;
3280;SDS011;1652;51.318;6.202;2023-02-03T12:36:17;8.03;;;2.90;;
3280;SDS011;1652;51.318;6.202;2023-02-03T12:38:55;9.93;;;3.53;;
3280;SDS011;1652;51.318;6.202;2023-02-03T12:41:29;7.60;;;3.30;;
3280;SDS011;1652;51.318;6.202;2023-02-03T12:44:04;5.10;;;3.60;;
3280;SDS011;1652;51.318;6.202;2023-02-03T12:46:43;6.10;;;2.80;;
3280;SDS011;1652;51.318;6.202;2023-02-03T12:49:25;3.93;;;2.70;;
3280;SDS011;1652;51.318;6.202;2023-02-03T12:52:16;4.67;;;2.80;;
3280;SDS011;1652;51.318;6.202;2023-02-03T12:57:48;4.70;;;2.83;;
3280;SDS011;1652;51.318;6.202;2023-02-03T13:06:14;6.43;;;3.07;;
3280;SDS011;1652;51.318;6.202;2023-02-03T13:08:43;9.73;;;3.00;;
3280;SDS011;1652;51.318;6.202;2023-02-03T13:17:16;4.30;;;2.83;;
3280;SDS011;1652;51.318;6.202;2023-02-03T13:19:57;5.63;;;3.80;;
3280;SDS011;1652;51.318;6.202;2023-02-03T13:22:32;7.90;;;3.27;;
3280;SDS011;1652;51.318;6.202;2023-02-03T13:25:08;11.03;;;3.90;;
3280;SDS011;1652;51.318;6.202;2023-02-03T13:39:45;6.50;;;4.50;;
3280;SDS011;1652;51.318;6.202;2023-02-03T13:42:26;10.27;;;4.70;;
3280;SDS011;1652;51.318;6.202;2023-02-03T13:45:10;10.00;;;4.43;;
3280;SDS011;1652;51.318;6.202;2023-02-03T13:47:38;7.53;;;3.27;;
3280;SDS011;1652;51.318;6.202;2023-02-03T13:50:21;8.47;;;5.37;;
3280;SDS011;1652;51.318;6.202;2023-02-03T13:55:27;4.77;;;4.30;;
3280;SDS011;1652;51.318;6.202;2023-02-03T13:57:58;5.27;;;3.83;;
3280;SDS011;1652;51.318;6.202;2023-02-03T14:03:17;6.97;;;4.40;;
3280;SDS011;1652;51.318;6.202;2023-02-03T14:05:46;5.30;;;4.77;;
3280;SDS011;1652;51.318;6.202;2023-02-03T14:16:43;5.87;;;3.80;;
3280;SDS011;1652;51.318;6.202;2023-02-03T14:21:58;5.23;;;4.00;;
3280;SDS011;1652;51.318;6.202;2023-02-03T14:24:29;9.80;;;3.30;;
3280;SDS011;1652;51.318;6.202;2023-02-03T14:26:58;7.37;;;3.13;;
3280;SDS011;1652;51.318;6.202;2023-02-03T14:34:36;5.53;;;3.00;;
3280;SDS011;1652;51.318;6.202;2023-02-03T14:45:41;8.17;;;3.20;;
3280;SDS011;1652;51.318;6.202;2023-02-03T14:48:50;10.47;;;2.80;;
3280;SDS011;1652;51.318;6.202;2023-02-03T15:00:00;8.57;;;2.77;;
3280;SDS011;1652;51.318;6.202;2023-02-03T15:02:35;7.50;;;2.83;;
3280;SDS011;1652;51.318;6.202;2023-02-03T15:07:51;3.27;;;2.80;;
3280;SDS011;1652;51.318;6.202;2023-02-03T15:10:22;7.47;;;2.70;;
3280;SDS011;1652;51.318;6.202;2023-02-03T15:12:56;8.93;;;2.77;;
3280;SDS011;1652;51.318;6.202;2023-02-03T15:15:27;7.50;;;3.10;;
3280;SDS011;1652;51.318;6.202;2023-02-03T15:17:57;3.30;;;2.83;;
3280;SDS011;1652;51.318;6.202;2023-02-03T15:23:01;9.57;;;3.60;;
3280;SDS011;1652;51.318;6.202;2023-02-03T15:25:28;6.57;;;3.20;;
3280;SDS011;1652;51.318;6.202;2023-02-03T15:28:39;13.43;;;3.50;;
3280;SDS011;1652;51.318;6.202;2023-02-03T15:30:51;12.53;;;3.40;;
3280;SDS011;1652;51.318;6.202;2023-02-03T15:33:23;7.57;;;3.30;;
3280;SDS011;1652;51.318;6.202;2023-02-03T15:35:55;6.50;;;3.60;;
3280;SDS011;1652;51.318;6.202;2023-02-03T15:38:28;17.83;;;4.00;;
3280;SDS011;1652;51.318;6.202;2023-02-03T15:40:59;13.47;;;4.20;;
3280;SDS011;1652;51.318;6.202;2023-02-03T15:43:28;6.40;;;3.80;;
3280;SDS011;1652;51.318;6.202;2023-02-03T15:51:42;8.00;;;3.80;;
3280;SDS011;1652;51.318;6.202;2023-02-03T15:56:51;10.63;;;4.63;;
3280;SDS011;1652;51.318;6.202;2023-02-03T15:59:37;10.97;;;4.00;;
3280;SDS011;1652;51.318;6.202;2023-02-03T16:04:43;5.20;;;3.50;;
3280;SDS011;1652;51.318;6.202;2023-02-03T16:07:14;8.67;;;3.97;;
3280;SDS011;1652;51.318;6.202;2023-02-03T16:09:44;19.73;;;5.20;;
3280;SDS011;1652;51.318;6.202;2023-02-03T16:14:41;13.63;;;4.47;;
3280;SDS011;1652;51.318;6.202;2023-02-03T16:17:42;21.20;;;4.43;;
3280;SDS011;1652;51.318;6.202;2023-02-03T16:20:25;13.53;;;4.83;;
3280;SDS011;1652;51.318;6.202;2023-02-03T16:23:04;15.97;;;4.03;;
3280;SDS011;1652;51.318;6.202;2023-02-03T16:25:42;13.77;;;4.03;;
3280;SDS011;1652;51.318;6.202;2023-02-03T16:28:26;15.97;;;4.00;;
3280;SDS011;1652;51.318;6.202;2023-02-03T16:31:14;22.00;;;4.03;;
3280;SDS011;1652;51.318;6.202;2023-02-03T16:34:09;16.10;;;3.60;;
3280;SDS011;1652;51.318;6.202;2023-02-03T16:37:00;19.83;;;4.13;;
3280;SDS011;1652;51.318;6.202;2023-02-03T16:39:54;20.27;;;4.20;;
3280;SDS011;1652;51.318;6.202;2023-02-03T16:42:40;19.27;;;4.20;;
3280;SDS011;1652;51.318;6.202;2023-02-03T16:45:25;24.53;;;5.10;;
3280;SDS011;1652;51.318;6.202;2023-02-03T16:48:11;18.43;;;4.57;;
3280;SDS011;1652;51.318;6.202;2023-02-03T16:51:00;17.57;;;4.13;;
3280;SDS011;1652;51.318;6.202;2023-02-03T16:53:31;20.70;;;4.33;;
3280;SDS011;1652;51.318;6.202;2023-02-03T16:55:59;11.63;;;3.00;;
3280;SDS011;1652;51.318;6.202;2023-02-03T16:58:27;13.37;;;3.93;;
3280;SDS011;1652;51.318;6.202;2023-02-03T17:00:54;18.30;;;4.53;;
3280;SDS011;1652;51.318;6.202;2023-02-03T17:03:24;19.27;;;4.80;;
3280;SDS011;1652;51.318;6.202;2023-02-03T17:05:54;13.33;;;3.53;;
3280;SDS011;1652;51.318;6.202;2023-02-03T17:08:23;14.13;;;3.70;;
3280;SDS011;1652;51.318;6.202;2023-02-03T17:10:51;21.33;;;5.20;;
3280;SDS011;1652;51.318;6.202;2023-02-03T17:13:18;16.53;;;4.60;;
3280;SDS011;1652;51.318;6.202;2023-02-03T17:15:48;7.20;;;3.70;;
3280;SDS011;1652;51.318;6.202;2023-02-03T17:18:18;19.77;;;3.87;;
3280;SDS011;1652;51.318;6.202;2023-02-03T17:20:45;13.20;;;3.67;;
3280;SDS011;1652;51.318;6.202;2023-02-03T17:23:12;11.77;;;3.50;;
3280;SDS011;1652;51.318;6.202;2023-02-03T17:25:43;14.20;;;3.60;;
3280;SDS011;1652;51.318;6.202;2023-02-03T17:28:12;24.40;;;3.77;;
3280;SDS011;1652;51.318;6.202;2023-02-03T17:30:39;17.13;;;4.23;;
3280;SDS011;1652;51.318;6.202;2023-02-03T17:33:07;14.30;;;4.30;;
3280;SDS011;1652;51.318;6.202;2023-02-03T17:35:40;13.00;;;4.67;;
3280;SDS011;1652;51.318;6.202;2023-02-03T17:38:09;13.67;;;5.37;;
3280;SDS011;1652;51.318;6.202;2023-02-03T17:40:38;16.83;;;4.27;;
3280;SDS011;1652;51.318;6.202;2023-02-03T17:43:22;12.93;;;4.10;;
3280;SDS011;1652;51.318;6.202;2023-02-03T17:46:04;22.37;;;3.80;;
3280;SDS011;1652;51.318;6.202;2023-02-03T17:48:45;14.27;;;3.57;;
3280;SDS011;1652;51.318;6.202;2023-02-03T17:51:26;12.13;;;4.30;;
3280;SDS011;1652;51.318;6.202;2023-02-03T17:54:10;19.87;;;4.17;;
3280;SDS011;1652;51.318;6.202;2023-02-03T17:56:37;11.57;;;4.50;;
3280;SDS011;1652;51.318;6.202;2023-02-03T17:59:04;12.87;;;3.30;;
3280;SDS011;1652;51.318;6.202;2023-02-03T18:01:31;29.20;;;4.97;;
3280;SDS011;1652;51.318;6.202;2023-02-03T18:03:59;10.50;;;3.23;;
3280;SDS011;1652;51.318;6.202;2023-02-03T18:06:27;19.37;;;5.10;;
3280;SDS011;1652;51.318;6.202;2023-02-03T18:08:55;14.23;;;3.77;;
3280;SDS011;1652;51.318;6.202;2023-02-03T18:11:28;15.10;;;3.90;;
3280;SDS011;1652;51.318;6.202;2023-02-03T18:13:55;11.77;;;3.43;;
3280;SDS011;1652;51.318;6.202;2023-02-03T18:16:23;18.73;;;3.93;;